메인 페이지
METAR-TAF:

METAR-TAF

공항 :

댈러스 포트워스 국제공항

댈러스 / 포트워스, 텍사스, 미국

위도: 32-53-49N, 경도: 097-01-19W, 고도: 183m

현재 날씨관측

예보는 21분 전, 15:22시(UTC)에 발표되었습니다.
무풍
온도 19°C
습도 94%
기압 1018 hPa
시정: 4.8km
고도 1100ft 상공 구름 조금
고도 2600ft 상공 구름 보통
고도 9000ft 상공 흐림
비, 박무

METAR: KDFW 201522Z 00000KT 3SM RA BR FEW011 SCT026 OVC090 19/18 A3006 RMK AO2 LTG DSNT SE AND S TSE22 OCNL LTGIC DSNT SE TS MOVD NE CB DSNT SE MOV NE P0007 T01890183 $

시각: 10:43 (15:43 UTC)

예보

예보는 40분 전, 15:03시(UTC)에 발표되었습니다.
예보 대상 시간: 20일 15시부터 21일 18시까지 (UTC)
북서5kt
시정: 10km
고도 5000ft 상공 구름 많음, 적란운.
고도 15000ft 상공 구름 많음
약한소나기, 시계 내 뇌우
일시적
20일 15시부터 20일 17시까지 (UTC)
고도 2500ft 상공 구름 많음, 적란운.
20일 1700시부터 (UTC)
5kt
시정: 10km
고도 10000ft 상공 구름 많음
고도 25000ft 상공 흐림
20일 2000시부터 (UTC)
남남서6kt
시정: 10km
고도 8000ft 상공 구름 많음

TAF: KDFW 201503Z 2015/2118 31005KT P6SM -SHRA VCTS BKN050CB BKN150 TEMPO 2015/2017 BKN025CB FM201700 27005KT P6SM BKN100 OVC250 FM202000 21006KT P6SM BKN080

4,000개 이상의 공항 관측 자료 및 예보 (METAR 및 TAF 보고).

지도상에서 검색 가능한 기상관측소가 노란 점과 빨간 점으로 표시되어 있습니다.

기상관측소 명을 보려면 표시 위로 마우스를 이동하세요.

날씨 관측과 예보를 보려면 클릭하세요.

지도 변경 : 확대하려면 엑스 표시가 있는 녹색 버튼, 축소하려면 빼기 표시가 있는 녹색 버튼, 다음 페이지의 지도를 보려면 녹색 화살표를 클릭하세요.


METAR-TAF: